Soperton, GA

03:53 AM EDT on سبتهبر 20, 2014 (GMT -0400)
South Treutlen Co. | Change Station
CLOSE
Current Station
Personal Weather Stations
Location: Soperton, GA
Elevation: 236 ft
Nearby Weather Stations

Elev 236 ft 32.32 °N, 82.60 °W | Updated 6 seconds ago

غائم جزئياً
غائم جزئياً
67.9 °F
Feels Like 67.9 °F
N
0.0
ريح متغير ريح from شمال
Gusts 2.0 mph

هذا اليوم
High -- | Low -- °F
--% Chance of Precip.
Yesterday
High -- | Low -- °F
Precip. -- في
7:17 AM 7:29 PM
الهلال الأخير, 14% visible
الضغط 30.05 في
وضوح الرؤية 10.0 أميال
سحابات غائم 600 ft
نقطة الندى 68 °F
الرطوبة 99%
Rainfall 0.00 في
عمق الثلج Not available.
الأشعة فوق البنفسجية 0 out of 12
Pollen 8.40 out of 12
جودة الهواء Not available.
Flu Activity Not available.
METAR KVDI 200735Z AUTO 05008KT 10SM OVC006 20/20 A3005 RMK AO2

More Conditions Fewer Conditions

الضغط 30.05 في
وضوح الرؤية 10.0 أميال
سحابات غائم 600 ft
نقطة الندى 68 °F
الرطوبة 99%
Rainfall 0.00 في
عمق الثلج Not available.
الأشعة فوق البنفسجية 0 out of 12
Pollen 8.40 out of 12
جودة الهواء Not available.
Flu Activity Not available.
METAR KVDI 200735Z AUTO 05008KT 10SM OVC006 20/20 A3005 RMK AO2

More Conditions Fewer Conditions

10-Day Weather Forecast

Almanac

علم الفلك

Sep. 20, 2014 Rise Set
Actual Time 7:17 AM EDT 7:29 PM EDT
Civil Twilight 6:52 AM EDT 7:54 PM EDT
Nautical Twilight 6:24 AM EDT 8:22 PM EDT
Astronomical Twilight 5:55 AM EDT 8:51 PM EDT
قمر 4:04 AM EDT 5:24 PM EDT
Length Of Visible Light 13h 01m
طول الیوم
12h 12m
Tomorrow will be 1m 59s shorter.
الهلال الأخير, 14% of the Moon is Illuminated
هذا اليوم
الهلال الأخير
Sep 24
New
Oct 1
الربع الاول
Oct 8
بدر
Oct 15
الربع الآخر

Today's Extremes

State Highs State Lows

Community

WunderPhotos

Upload Photos

1,754,793 photos uploaded!

WunderBlogs® & News

Nearby

عمق الثلج

Station Depth Elevation
No new snow has been reported.

Earthquake Activity

City Distance Mag. Time & Date
New Ellenton, South Carolina 89 أميال 2.6 4:38 PM EDT
2014-09-19
Minimum magnitude displayed is 2.5.

Coastal Water Temperatures

مكان درجات الحرارة
No Stations Reporting

Nearby Weather Stations